Time;durP1;ratioP1;P1;durP2;ratioP2;P2;SDS_P1;SDS_P2;PMS_P1;PMS_P2;Temp;Humidity;BMP_temperature;BMP_pressure;BME280_temperature;BME280_humidity;BME280_pressure;Samples;Min_cycle;Max_cycle;Signal;HPM_P1;HPM_P2
2024/01/27 00:00:32;;;;;;;19.40;2.67;;;;;;;7.22;100.00;101004.53;5065659;28;20044;-72
2024/01/27 00:02:58;;;;;;;14.48;3.33;;;;;;;7.09;100.00;100999.56;5069298;28;20408;-72
2024/01/27 00:05:25;;;;;;;15.23;2.58;;;;;;;7.26;100.00;100996.63;5075569;28;20052;-73
2024/01/27 00:07:56;;;;;;;16.35;2.75;;;;;;;7.28;100.00;100997.44;5074566;28;20044;-72
2024/01/27 00:10:23;;;;;;;14.43;3.30;;;;;;;7.27;100.00;101004.41;5068596;28;20049;-71
2024/01/27 00:12:49;;;;;;;12.90;2.50;;;;;;;7.28;100.00;101006.13;5054593;28;20045;-71
2024/01/27 00:15:16;;;;;;;12.98;2.35;;;;;;;7.40;100.00;101005.00;5069460;28;20410;-72
2024/01/27 00:17:44;;;;;;;13.02;2.63;;;;;;;7.41;100.00;101007.59;5069387;28;20417;-73
2024/01/27 00:20:11;;;;;;;16.23;3.05;;;;;;;7.31;100.00;101008.69;5069276;28;20048;-72
2024/01/27 00:22:38;;;;;;;13.98;2.78;;;;;;;7.47;100.00;101024.88;5069139;28;20059;-72
2024/01/27 00:25:05;;;;;;;11.25;2.42;;;;;;;7.22;100.00;101016.66;5069686;28;20067;-72
2024/01/27 00:27:32;;;;;;;15.63;2.65;;;;;;;7.21;100.00;101012.34;5062798;28;20410;-72
2024/01/27 00:29:59;;;;;;;10.30;2.60;;;;;;;7.41;100.00;101030.19;5063699;28;20040;-71
2024/01/27 00:32:26;;;;;;;19.02;2.45;;;;;;;7.41;100.00;101041.47;5069583;28;20106;-72
2024/01/27 00:34:52;;;;;;;9.88;1.95;;;;;;;7.50;100.00;101037.81;5069188;28;20048;-71
2024/01/27 00:37:19;;;;;;;15.25;2.97;;;;;;;7.50;100.00;101039.56;5058923;28;20106;-72
2024/01/27 00:39:46;;;;;;;13.93;2.67;;;;;;;7.49;100.00;101033.50;5064091;28;20049;-72
2024/01/27 00:42:14;;;;;;;15.52;2.95;;;;;;;7.41;100.00;101049.28;5049507;28;20044;-72
2024/01/27 00:44:40;;;;;;;11.00;2.40;;;;;;;7.42;100.00;101044.94;5064652;28;20147;-72
2024/01/27 00:47:07;;;;;;;15.80;3.08;;;;;;;7.40;100.00;101026.75;5064190;28;20080;-72
2024/01/27 00:49:34;;;;;;;11.23;2.42;;;;;;;7.57;100.00;101031.59;5068141;28;20048;-72
2024/01/27 00:52:00;;;;;;;10.95;2.33;;;;;;;7.45;100.00;101044.03;5068672;28;20041;-72
2024/01/27 00:54:27;;;;;;;12.63;3.63;;;;;;;7.28;100.00;101026.97;5068430;28;20056;-72
2024/01/27 00:56:54;;;;;;;16.55;2.72;;;;;;;7.30;100.00;101030.41;5064926;28;20508;-72
2024/01/27 00:59:21;;;;;;;15.30;3.10;;;;;;;7.34;100.00;101034.66;5058103;28;20048;-72
2024/01/27 01:01:47;;;;;;;22.55;3.30;;;;;;;7.52;100.00;101048.22;5074519;28;20149;-72
2024/01/27 01:04:14;;;;;;;11.80;2.70;;;;;;;7.48;100.00;101039.59;5061696;28;20045;-73
2024/01/27 01:06:41;;;;;;;13.07;2.92;;;;;;;7.49;100.00;101048.25;5065972;28;20299;-72
2024/01/27 01:09:08;;;;;;;15.25;3.10;;;;;;;7.36;100.00;101043.28;5064347;28;20051;-72
2024/01/27 01:11:35;;;;;;;14.27;2.47;;;;;;;7.26;100.00;101044.38;5057021;28;20098;-72
2024/01/27 01:14:05;;;;;;;8.15;2.40;;;;;;;7.34;100.00;101039.88;5070358;28;20431;-72
2024/01/27 01:16:32;;;;;;;11.32;3.50;;;;;;;7.29;100.00;101041.69;5069927;28;20387;-72
2024/01/27 01:18:59;;;;;;;16.75;3.33;;;;;;;7.41;100.00;101038.84;5070392;28;20401;-72
2024/01/27 01:21:26;;;;;;;17.13;3.08;;;;;;;7.30;100.00;101047.78;5060570;28;20044;-72
2024/01/27 01:23:53;;;;;;;15.32;3.10;;;;;;;7.37;100.00;101038.97;5060549;28;20063;-72
2024/01/27 01:26:20;;;;;;;18.50;3.38;;;;;;;7.44;100.00;101040.56;5052997;28;20052;-73
2024/01/27 01:28:46;;;;;;;17.75;3.13;;;;;;;7.36;100.00;101045.91;5062315;28;20062;-72
2024/01/27 01:31:13;;;;;;;15.98;2.70;;;;;;;7.47;100.00;101052.66;5071417;28;20178;-73
2024/01/27 01:33:40;;;;;;;12.05;2.70;;;;;;;7.50;100.00;101045.63;5077168;28;20052;-72
2024/01/27 01:36:07;;;;;;;14.07;3.10;;;;;;;7.30;100.00;101045.19;5077842;28;20052;-72
2024/01/27 01:38:33;;;;;;;14.20;3.05;;;;;;;7.42;100.00;101055.38;5063127;28;20071;-73
2024/01/27 01:41:00;;;;;;;15.05;3.38;;;;;;;7.35;100.00;101058.97;5072628;28;20059;-72
2024/01/27 01:43:27;;;;;;;14.73;3.95;;;;;;;7.53;100.00;101066.44;5072376;28;20059;-71
2024/01/27 01:45:54;;;;;;;15.57;3.70;;;;;;;7.41;100.00;101056.25;5072785;28;20075;-71
2024/01/27 01:48:20;;;;;;;15.85;2.67;;;;;;;7.48;100.00;101052.63;5072174;28;20505;-72
2024/01/27 01:50:48;;;;;;;9.80;2.70;;;;;;;7.40;100.00;101051.91;5071157;28;20045;-72
2024/01/27 01:53:15;;;;;;;15.05;3.00;;;;;;;7.44;100.00;101044.91;5056982;28;20045;-73
2024/01/27 01:55:42;;;;;;;15.30;3.90;;;;;;;7.38;100.00;101051.09;5060487;28;20049;-72
2024/01/27 01:58:09;;;;;;;16.25;3.13;;;;;;;7.27;100.00;101047.84;5066719;28;20053;-72
2024/01/27 02:00:35;;;;;;;14.20;2.92;;;;;;;7.38;100.00;101053.69;5067296;28;20045;-72
2024/01/27 02:03:02;;;;;;;18.15;3.35;;;;;;;7.24;100.00;101030.50;5071268;28;20052;-73
2024/01/27 02:05:31;;;;;;;19.48;4.13;;;;;;;7.12;100.00;101039.44;5051887;28;20049;-73
2024/01/27 02:07:59;;;;;;;15.73;3.10;;;;;;;7.29;100.00;101033.88;5057633;28;20465;-72
2024/01/27 02:10:26;;;;;;;14.15;3.55;;;;;;;7.17;100.00;101031.50;5064959;28;20053;-72
2024/01/27 02:12:53;;;;;;;20.30;4.60;;;;;;;7.21;100.00;101028.84;5060445;28;20072;-73
2024/01/27 02:15:21;;;;;;;13.48;2.80;;;;;;;7.33;100.00;101026.88;5067531;28;20049;-72
2024/01/27 02:17:48;;;;;;;10.32;2.70;;;;;;;7.31;100.00;101020.84;5063699;28;20136;-74
2024/01/27 02:20:15;;;;;;;18.48;2.97;;;;;;;7.37;100.00;101032.00;5053806;28;20128;-72
2024/01/27 02:22:42;;;;;;;14.52;3.75;;;;;;;7.21;100.00;101014.97;5067551;28;20202;-72
2024/01/27 02:25:08;;;;;;;15.38;2.97;;;;;;;7.41;100.00;101011.97;5071038;28;20045;-74
2024/01/27 02:27:35;;;;;;;15.18;3.42;;;;;;;7.34;100.00;101005.16;5065288;28;20509;-72
2024/01/27 02:30:02;;;;;;;17.27;3.40;;;;;;;7.21;100.00;101012.34;5064217;28;20529;-72
2024/01/27 02:32:29;;;;;;;15.88;3.80;;;;;;;7.15;100.00;101017.66;5063847;28;20063;-72
2024/01/27 02:34:55;;;;;;;13.45;3.22;;;;;;;7.21;100.00;101022.78;5067002;28;20041;-72
2024/01/27 02:37:22;;;;;;;18.50;4.00;;;;;;;7.16;100.00;101025.44;5068870;28;20505;-72
2024/01/27 02:39:49;;;;;;;11.88;3.53;;;;;;;7.13;100.00;101020.28;5060441;28;20048;-72
2024/01/27 02:42:15;;;;;;;11.48;3.35;;;;;;;7.31;100.00;101024.31;5068015;28;20051;-72
2024/01/27 02:44:42;;;;;;;12.52;2.67;;;;;;;7.50;100.00;101021.34;5059195;28;20056;-72
2024/01/27 02:47:09;;;;;;;14.75;3.72;;;;;;;7.15;100.00;101022.88;5059343;28;20141;-72
2024/01/27 02:49:35;;;;;;;9.75;2.42;;;;;;;7.41;100.00;101032.78;5065791;28;20052;-72
2024/01/27 02:52:03;;;;;;;11.23;2.95;;;;;;;7.38;100.00;101041.53;5064013;28;20378;-72
2024/01/27 02:54:29;;;;;;;13.75;3.75;;;;;;;7.46;100.00;101043.16;5063319;28;20387;-72
2024/01/27 02:56:56;;;;;;;18.92;5.30;;;;;;;7.17;100.00;101021.09;5066937;28;20041;-72
2024/01/27 02:59:23;;;;;;;19.13;4.10;;;;;;;7.27;100.00;101046.09;5070773;28;20543;-72
2024/01/27 03:01:50;;;;;;;12.23;3.13;;;;;;;7.32;100.00;101041.66;5054392;28;20053;-72
2024/01/27 03:04:16;;;;;;;14.50;3.08;;;;;;;7.55;100.00;101038.59;5068014;28;20051;-71
2024/01/27 03:06:44;;;;;;;12.10;3.22;;;;;;;7.44;100.00;101042.28;5058601;28;20509;-72
2024/01/27 03:09:11;;;;;;;17.17;4.22;;;;;;;7.34;100.00;101047.69;5066873;28;20131;-72
2024/01/27 03:11:38;;;;;;;15.80;3.20;;;;;;;7.53;100.00;101037.75;5060255;28;20060;-73
2024/01/27 03:14:05;;;;;;;24.50;4.65;;;;;;;7.49;100.00;101036.13;5049553;28;20060;-71
2024/01/27 03:16:32;;;;;;;17.92;3.72;;;;;;;7.57;100.00;101029.00;5057918;28;20691;-72
2024/01/27 03:18:59;;;;;;;16.63;3.42;;;;;;;7.40;100.00;101020.66;5065594;28;20098;-72
2024/01/27 03:21:26;;;;;;;19.95;4.25;;;;;;;7.28;100.00;101026.09;5052227;28;20053;-73
2024/01/27 03:23:52;;;;;;;25.55;4.28;;;;;;;7.32;100.00;101032.97;5061923;28;20414;-72
2024/01/27 03:26:19;;;;;;;23.80;4.07;;;;;;;7.29;100.00;101030.44;5055879;28;20132;-72
2024/01/27 03:28:46;;;;;;;19.23;3.67;;;;;;;7.20;100.00;101026.25;5068273;28;20517;-72
2024/01/27 03:31:13;;;;;;;18.17;3.75;;;;;;;7.31;100.00;101023.44;5065996;28;20048;-72
2024/01/27 03:33:39;;;;;;;16.23;3.78;;;;;;;7.40;100.00;101029.34;5061244;28;20055;-72
2024/01/27 03:36:13;;;;;;;17.05;3.80;;;;;;;7.43;100.00;101022.34;5066789;28;20106;-72
2024/01/27 03:38:41;;;;;;;20.15;3.85;;;;;;;7.24;100.00;101022.69;5068309;28;20060;-72
2024/01/27 03:41:08;;;;;;;17.42;4.53;;;;;;;7.21;100.00;101030.59;5068263;28;20577;-72
2024/01/27 03:43:34;;;;;;;22.60;3.95;;;;;;;7.28;100.00;101033.91;5070424;28;20052;-71
2024/01/27 03:46:01;;;;;;;17.13;4.20;;;;;;;7.31;100.00;101007.81;5072432;28;20504;-72
2024/01/27 03:48:27;;;;;;;24.88;4.35;;;;;;;7.37;100.00;101029.41;5076456;28;20414;-72
2024/01/27 03:50:54;;;;;;;17.10;3.28;;;;;;;7.40;100.00;101021.53;5069351;28;20083;-71
2024/01/27 03:53:21;;;;;;;19.65;4.00;;;;;;;7.52;100.00;101022.16;5070248;28;20063;-72
2024/01/27 03:55:48;;;;;;;21.67;3.75;;;;;;;7.40;100.00;101029.34;5074589;28;20055;-72
2024/01/27 03:58:14;;;;;;;21.02;3.85;;;;;;;7.52;100.00;101029.97;5072836;28;20049;-71
2024/01/27 04:00:41;;;;;;;12.98;3.60;;;;;;;7.36;100.00;101029.44;5058186;28;20052;-72
2024/01/27 04:03:11;;;;;;;19.70;4.20;;;;;;;7.40;100.00;101023.25;5059259;28;20481;-72
2024/01/27 04:05:38;;;;;;;16.92;3.92;;;;;;;7.43;100.00;101007.56;5069781;28;20067;-72
2024/01/27 04:08:06;;;;;;;18.20;3.42;;;;;;;7.48;100.00;101021.38;5062993;28;20486;-73
2024/01/27 04:10:34;;;;;;;12.45;3.55;;;;;;;7.46;100.00;101007.50;5061746;28;20410;-72
2024/01/27 04:13:00;;;;;;;22.65;4.80;;;;;;;7.37;100.00;101012.91;5056296;28;20080;-72
2024/01/27 04:15:27;;;;;;;19.10;3.90;;;;;;;7.56;100.00;101022.06;5067938;28;20087;-72
2024/01/27 04:17:54;;;;;;;17.90;3.95;;;;;;;7.71;100.00;101018.28;5055252;28;20494;-72
2024/01/27 04:20:21;;;;;;;13.43;3.25;;;;;;;7.83;100.00;101011.97;5068795;28;20040;-72
2024/01/27 04:22:48;;;;;;;17.25;3.95;;;;;;;7.63;100.00;101014.97;5063799;28;20513;-72
2024/01/27 04:25:15;;;;;;;21.73;4.10;;;;;;;7.75;100.00;101004.28;5070072;28;20497;-72
2024/01/27 04:27:42;;;;;;;19.90;4.75;;;;;;;7.65;100.00;101004.50;5062778;28;20044;-72
2024/01/27 04:30:11;;;;;;;12.85;3.38;;;;;;;7.60;100.00;100994.22;5068117;28;20044;-72
2024/01/27 04:32:38;;;;;;;21.40;4.57;;;;;;;7.58;100.00;100989.03;5069170;28;20102;-72
2024/01/27 04:35:09;;;;;;;16.80;3.53;;;;;;;7.56;100.00;100998.63;5069272;28;20597;-72
2024/01/27 04:37:36;;;;;;;21.55;4.78;;;;;;;7.67;100.00;100995.78;5068965;28;20060;-72
2024/01/27 04:40:06;;;;;;;12.48;3.65;;;;;;;7.66;100.00;101004.47;5068116;28;20055;-72
2024/01/27 04:42:34;;;;;;;27.48;5.30;;;;;;;7.44;100.00;101003.22;5055074;28;20056;-72
2024/01/27 04:45:01;;;;;;;21.98;4.78;;;;;;;7.49;100.00;101020.50;5069060;28;20059;-72
2024/01/27 04:47:28;;;;;;;14.30;3.58;;;;;;;7.57;100.00;101005.53;5071641;28;20048;-72
2024/01/27 04:49:55;;;;;;;18.23;5.03;;;;;;;7.56;100.00;101022.06;5073591;28;20048;-73
2024/01/27 04:52:22;;;;;;;14.30;4.97;;;;;;;7.55;100.00;101009.94;5072444;28;20048;-72
2024/01/27 04:54:48;;;;;;;14.90;3.50;;;;;;;7.53;100.00;101005.66;5064797;28;20053;-72
2024/01/27 04:57:16;;;;;;;18.13;4.63;;;;;;;7.60;100.00;101007.25;5068065;28;20060;-72
2024/01/27 04:59:42;;;;;;;20.40;4.43;;;;;;;7.82;100.00;101019.81;5074929;28;20044;-72
2024/01/27 05:02:10;;;;;;;19.25;3.80;;;;;;;7.71;100.00;101012.22;5077134;28;20052;-72
2024/01/27 05:04:37;;;;;;;17.50;4.07;;;;;;;7.70;100.00;101006.16;5072669;28;20490;-72
2024/01/27 05:07:04;;;;;;;29.05;4.53;;;;;;;7.69;100.00;101001.81;5086112;28;20048;-72
2024/01/27 05:09:33;;;;;;;12.65;4.10;;;;;;;7.66;100.00;101004.47;5073280;28;20405;-72
2024/01/27 05:12:00;;;;;;;22.40;4.07;;;;;;;7.69;100.00;100996.63;5071693;28;20084;-72
2024/01/27 05:14:27;;;;;;;17.08;4.15;;;;;;;7.76;100.00;101005.16;5073104;28;20486;-72
2024/01/27 05:16:53;;;;;;;13.90;3.58;;;;;;;7.81;100.00;100998.09;5081291;28;20048;-72
2024/01/27 05:19:21;;;;;;;14.13;3.80;;;;;;;7.75;100.00;100996.47;5066515;28;20059;-72
2024/01/27 05:21:48;;;;;;;19.17;5.07;;;;;;;7.77;100.00;100999.03;5075454;28;20052;-72
2024/01/27 05:24:15;;;;;;;17.02;3.45;;;;;;;7.69;100.00;100986.19;5055799;28;20052;-72
2024/01/27 05:26:41;;;;;;;16.33;3.53;;;;;;;7.60;100.00;100984.63;5062813;28;20049;-71
2024/01/27 05:29:08;;;;;;;17.05;4.25;;;;;;;7.66;100.00;100993.22;5065380;28;20054;-71
2024/01/27 05:31:35;;;;;;;10.82;3.40;;;;;;;7.72;100.00;100998.28;5071283;28;20052;-72
2024/01/27 05:34:02;;;;;;;15.73;3.53;;;;;;;7.74;100.00;100986.09;5076976;28;20420;-72
2024/01/27 05:36:29;;;;;;;13.77;3.20;;;;;;;7.86;100.00;101000.59;5073219;28;20494;-72
2024/01/27 05:38:55;;;;;;;18.70;4.57;;;;;;;7.67;100.00;100972.34;5058752;28;20082;-72
2024/01/27 05:41:26;;;;;;;20.15;3.83;;;;;;;7.62;100.00;100968.97;5073078;28;20051;-72
2024/01/27 05:43:53;;;;;;;20.67;3.97;;;;;;;7.77;100.00;100986.00;5072623;28;20051;-72
2024/01/27 05:46:20;;;;;;;20.05;3.90;;;;;;;7.62;100.00;100966.38;5061501;28;20507;-71
2024/01/27 05:48:46;;;;;;;17.27;4.15;;;;;;;7.66;100.00;100972.38;5067366;28;20410;-72
2024/01/27 05:51:13;;;;;;;12.15;3.25;;;;;;;7.78;100.00;100977.31;5068340;28;20123;-73
2024/01/27 05:53:40;;;;;;;12.95;3.20;;;;;;;7.62;100.00;100961.16;5066395;28;20109;-71
2024/01/27 05:56:06;;;;;;;15.95;3.70;;;;;;;7.51;100.00;100963.13;5053513;28;20053;-72
2024/01/27 05:58:33;;;;;;;16.40;3.67;;;;;;;7.49;100.00;100973.59;5054475;28;20493;-72
2024/01/27 06:00:59;;;;;;;15.38;3.72;;;;;;;7.54;100.00;100973.47;5058702;28;20051;-72
2024/01/27 06:03:26;;;;;;;15.73;4.05;;;;;;;7.59;100.00;100993.31;5059914;28;20056;-72
2024/01/27 06:05:53;;;;;;;11.57;3.10;;;;;;;7.69;100.00;100999.22;5068174;28;20131;-72
2024/01/27 06:08:20;;;;;;;17.85;4.18;;;;;;;7.65;100.00;101005.41;5070018;28;20057;-72
2024/01/27 06:10:47;;;;;;;14.68;4.47;;;;;;;7.70;100.00;100984.44;5057179;28;20051;-72
2024/01/27 06:13:14;;;;;;;15.18;3.60;;;;;;;7.56;100.00;100982.09;5062396;28;20659;-72
2024/01/27 06:15:40;;;;;;;16.65;4.40;;;;;;;7.46;100.00;100983.22;5052144;28;20056;-72
2024/01/27 06:18:07;;;;;;;20.48;3.95;;;;;;;7.48;100.00;100984.03;5070101;28;20055;-72
2024/01/27 06:20:34;;;;;;;14.20;3.55;;;;;;;7.47;100.00;100983.19;5070902;28;20094;-72
2024/01/27 06:23:01;;;;;;;20.92;3.63;;;;;;;7.48;100.00;100990.09;5063611;28;20079;-72
2024/01/27 06:25:27;;;;;;;13.73;3.50;;;;;;;7.62;100.00;100988.97;5069547;28;20131;-73
2024/01/27 06:27:54;;;;;;;11.57;2.72;;;;;;;7.54;100.00;100976.97;5066390;28;20048;-72
2024/01/27 06:30:21;;;;;;;14.93;3.30;;;;;;;7.59;100.00;100985.50;5065925;28;20136;-72
2024/01/27 06:32:47;;;;;;;15.18;3.90;;;;;;;7.50;100.00;100984.84;5071839;28;20137;-71
2024/01/27 06:35:15;;;;;;;14.95;4.57;;;;;;;7.45;100.00;100991.91;5070028;28;20098;-71
2024/01/27 06:37:41;;;;;;;15.07;3.92;;;;;;;7.46;100.00;100991.88;5071054;28;20086;-72
2024/01/27 06:40:11;;;;;;;17.45;3.38;;;;;;;7.31;100.00;100992.19;5070613;28;20060;-72
2024/01/27 06:42:38;;;;;;;13.55;3.80;;;;;;;7.41;100.00;100968.53;5078809;28;20064;-72
2024/01/27 06:45:05;;;;;;;25.63;7.03;;;;;;;7.40;100.00;100964.22;5073446;28;20056;-70
2024/01/27 06:47:32;;;;;;;13.10;3.35;;;;;;;7.38;100.00;100963.41;5083378;28;20052;-72
2024/01/27 06:49:58;;;;;;;15.18;2.97;;;;;;;7.49;100.00;100964.88;5071419;28;20084;-72
2024/01/27 06:52:25;;;;;;;15.43;4.75;;;;;;;7.49;100.00;100976.19;5071867;28;20517;-71
2024/01/27 06:54:52;;;;;;;11.85;2.80;;;;;;;7.44;100.00;100962.41;5071220;28;20442;-71
2024/01/27 06:57:24;;;;;;;10.10;3.25;;;;;;;7.47;100.00;100972.78;5071374;28;20064;-71
2024/01/27 06:59:52;;;;;;;10.82;3.15;;;;;;;7.45;100.00;100971.06;5068434;28;20486;-71
2024/01/27 07:02:28;;;;;;;10.82;3.28;;;;;;;7.28;100.00;100964.47;5072717;28;20469;-72
2024/01/27 07:04:55;;;;;;;15.70;3.05;;;;;;;7.31;100.00;100956.59;5070966;28;20136;-73
2024/01/27 07:07:26;;;;;;;14.95;2.83;;;;;;;7.39;100.00;100953.81;5068878;28;20074;-71
2024/01/27 07:09:56;;;;;;;11.00;3.03;;;;;;;7.36;100.00;100952.13;5061571;28;20363;-71
2024/01/27 07:12:23;;;;;;;15.75;4.05;;;;;;;7.30;100.00;100946.22;5066107;28;20128;-71
2024/01/27 07:14:59;;;;;;;15.27;3.33;;;;;;;7.18;100.00;100957.72;5069209;28;20064;-71
2024/01/27 07:17:27;;;;;;;8.30;2.65;;;;;;;7.19;100.00;100946.44;5055408;28;20468;-71
2024/01/27 07:19:54;;;;;;;9.88;2.63;;;;;;;7.43;100.00;100944.19;5055759;28;20044;-72
2024/01/27 07:22:22;;;;;;;12.18;3.08;;;;;;;7.46;100.00;100949.34;5068774;28;20057;-72
2024/01/27 07:24:51;;;;;;;8.90;2.45;;;;;;;7.53;100.00;100950.94;5060903;28;20040;-71
2024/01/27 07:27:18;;;;;;;10.68;2.67;;;;;;;7.57;100.00;100950.81;5058937;28;20075;-73
2024/01/27 07:29:45;;;;;;;11.82;2.85;;;;;;;7.48;100.00;100935.38;5059735;28;20127;-71
2024/01/27 07:32:15;;;;;;;7.65;2.70;;;;;;;7.52;100.00;100944.84;5102685;28;20041;-72
2024/01/27 07:34:45;;;;;;;15.43;3.08;;;;;;;7.34;100.00;100938.28;5066535;28;20410;-72
2024/01/27 07:37:11;;;;;;;9.90;2.60;;;;;;;7.46;100.00;100938.94;5065326;28;20045;-72
2024/01/27 07:39:38;;;;;;;14.13;3.20;;;;;;;7.32;100.00;100950.47;5061761;28;20067;-72
2024/01/27 07:42:05;;;;;;;13.95;2.85;;;;;;;7.43;100.00;100950.25;5050656;28;20048;-73
2024/01/27 07:44:32;;;;;;;14.10;3.05;;;;;;;7.42;100.00;100958.97;5050447;28;20092;-71
2024/01/27 07:46:58;;;;;;;15.00;3.35;;;;;;;7.58;100.00;100957.75;5071289;28;20414;-72
2024/01/27 07:49:25;;;;;;;10.68;2.72;;;;;;;7.63;100.00;100947.22;5058812;28;20131;-72
2024/01/27 07:51:52;;;;;;;10.57;3.10;;;;;;;7.46;100.00;100957.16;5068565;28;20052;-72
2024/01/27 07:54:18;;;;;;;11.15;2.67;;;;;;;7.54;100.00;100955.22;5056911;28;20466;-72
2024/01/27 07:56:45;;;;;;;9.45;2.47;;;;;;;7.46;100.00;100944.13;5076430;28;20757;-72
2024/01/27 07:59:14;;;;;;;12.40;2.75;;;;;;;7.47;100.00;100949.31;5066669;28;20044;-72
2024/01/27 08:01:41;;;;;;;9.82;2.50;;;;;;;7.54;100.00;100953.50;5063532;28;20049;-72
2024/01/27 08:04:08;;;;;;;10.88;2.22;;;;;;;7.59;100.00;100964.66;5063514;28;20060;-72
2024/01/27 08:06:47;;;;;;;13.07;2.60;;;;;;;7.55;100.00;100936.13;5070018;28;20056;-72
2024/01/27 08:09:14;;;;;;;11.55;2.72;;;;;;;7.57;100.00;100955.19;5064267;28;20057;-72
2024/01/27 08:11:41;;;;;;;8.88;2.30;;;;;;;7.59;100.00;100946.41;5062446;28;20045;-71
2024/01/27 08:14:08;;;;;;;14.98;3.00;;;;;;;7.54;100.00;100952.63;5072896;28;20063;-71
2024/01/27 08:16:34;;;;;;;8.63;2.35;;;;;;;7.58;100.00;100947.34;5065304;28;20064;-71
2024/01/27 08:19:01;;;;;;;12.77;2.53;;;;;;;7.69;100.00;100956.66;5055567;28;20044;-71
2024/01/27 08:21:28;;;;;;;13.13;2.55;;;;;;;7.70;100.00;100963.56;5053911;28;20544;-71
2024/01/27 08:23:55;;;;;;;11.00;3.03;;;;;;;7.63;100.00;100954.19;5054835;28;20087;-71
2024/01/27 08:26:22;;;;;;;14.48;2.90;;;;;;;7.84;100.00;100950.25;5049500;28;20152;-71
2024/01/27 08:28:49;;;;;;;9.82;2.38;;;;;;;7.60;100.00;100934.28;5058865;28;20051;-71
2024/01/27 08:31:15;;;;;;;10.32;2.53;;;;;;;7.62;100.00;100949.88;5052628;28;20053;-70
2024/01/27 08:33:42;;;;;;;7.78;2.08;;;;;;;7.71;100.00;100949.66;5056812;28;20048;-71
2024/01/27 08:36:14;;;;;;;13.57;3.63;;;;;;;7.63;100.00;100947.22;5062230;28;20070;-71
2024/01/27 08:38:40;;;;;;;9.15;2.22;;;;;;;7.68;100.00;100941.91;5062364;28;20102;-71
2024/01/27 08:41:08;;;;;;;9.57;2.08;;;;;;;7.50;100.00;100930.16;5059122;28;20053;-71
2024/01/27 08:43:34;;;;;;;7.40;1.88;;;;;;;7.75;100.00;100933.06;5052469;28;20568;-71
2024/01/27 08:46:01;;;;;;;8.32;1.95;;;;;;;7.76;100.00;100916.53;5057542;28;20052;-71
2024/01/27 08:48:28;;;;;;;9.75;2.85;;;;;;;7.75;100.00;100920.88;5059791;28;20175;-72
2024/01/27 08:50:55;;;;;;;11.63;2.40;;;;;;;7.91;100.00;100921.38;5065812;28;20046;-71
2024/01/27 08:53:21;;;;;;;7.38;2.33;;;;;;;7.96;100.00;100921.28;5063293;28;20449;-71
2024/01/27 08:55:48;;;;;;;8.77;2.58;;;;;;;7.80;100.00;100929.44;5062978;28;20064;-71
2024/01/27 08:58:15;;;;;;;7.32;1.90;;;;;;;7.96;100.00;100929.09;5058270;28;20049;-72
2024/01/27 09:00:41;;;;;;;10.82;2.15;;;;;;;7.86;100.00;100912.84;5061335;28;20486;-71
2024/01/27 09:03:08;;;;;;;11.45;2.05;;;;;;;8.02;100.00;100904.63;5056972;28;20123;-71
2024/01/27 09:05:35;;;;;;;8.00;2.58;;;;;;;7.96;100.00;100896.06;5064562;28;20540;-71
2024/01/27 09:08:02;;;;;;;7.43;2.03;;;;;;;7.93;100.00;100916.13;5060578;28;20057;-71
2024/01/27 09:10:28;;;;;;;7.45;1.75;;;;;;;7.90;100.00;100909.25;5054003;28;20048;-71
2024/01/27 09:12:55;;;;;;;9.20;2.00;;;;;;;8.06;100.00;100914.94;5060933;28;20037;-72
2024/01/27 09:15:22;;;;;;;7.97;2.00;;;;;;;8.04;100.00;100900.22;5049343;28;20159;-71
2024/01/27 09:17:49;;;;;;;6.53;1.65;;;;;;;8.04;100.00;100905.44;5059460;28;20056;-72
2024/01/27 09:20:15;;;;;;;6.07;2.10;;;;;;;8.07;100.00;100895.78;5067201;28;20473;-72
2024/01/27 09:22:44;;;;;;;10.18;1.80;;;;;;;8.23;100.00;100896.25;5089060;28;20497;-71
2024/01/27 09:25:11;;;;;;;7.97;2.30;;;;;;;8.11;100.00;100904.38;5054450;28;20045;-71
2024/01/27 09:27:38;;;;;;;7.88;1.80;;;;;;;8.14;100.00;100893.88;5051007;28;20071;-72
2024/01/27 09:30:06;;;;;;;6.45;1.80;;;;;;;8.22;100.00;100891.97;5055316;28;20451;-71
2024/01/27 09:32:33;;;;;;;6.93;1.38;;;;;;;8.42;100.00;100899.28;5071222;28;20482;-72
2024/01/27 09:35:00;;;;;;;5.50;1.83;;;;;;;8.02;100.00;100899.41;5073326;28;20525;-71
2024/01/27 09:37:27;;;;;;;7.60;1.60;;;;;;;7.84;100.00;100900.72;5057343;28;20060;-71
2024/01/27 09:39:55;;;;;;;7.18;1.73;;;;;;;8.04;100.00;100897.63;5062941;28;20055;-71
2024/01/27 09:42:22;;;;;;;6.25;1.80;;;;;;;8.25;100.00;100928.41;5063243;28;20095;-71
2024/01/27 09:44:49;;;;;;;7.72;1.73;;;;;;;8.04;100.00;100897.63;5070658;28;20467;-71
2024/01/27 09:47:16;;;;;;;6.40;1.50;;;;;;;7.98;100.00;100902.13;5075515;28;20431;-71
2024/01/27 09:49:43;;;;;;;4.43;1.33;;;;;;;8.29;100.00;100897.88;5073832;28;20449;-71
2024/01/27 09:52:11;;;;;;;8.98;1.85;;;;;;;8.24;100.00;100908.41;5057926;28;20045;-71
2024/01/27 09:54:37;;;;;;;5.72;1.60;;;;;;;8.22;100.00;100902.38;5060283;28;20045;-71
2024/01/27 09:57:04;;;;;;;5.68;1.63;;;;;;;8.53;100.00;100901.63;5054004;28;20049;-71
2024/01/27 09:59:33;;;;;;;6.95;1.58;;;;;;;8.21;100.00;100890.22;5060128;28;20065;-71
2024/01/27 10:02:01;;;;;;;9.32;1.92;;;;;;;8.43;100.00;100908.84;5061967;28;20173;-71
2024/01/27 10:04:29;;;;;;;9.07;1.70;;;;;;;8.34;100.00;100903.84;5070274;28;20048;-72
2024/01/27 10:06:58;;;;;;;6.18;1.80;;;;;;;8.23;100.00;100918.88;5058887;28;20431;-72
2024/01/27 10:09:24;;;;;;;6.32;1.50;;;;;;;8.36;100.00;100915.09;5062855;28;20139;-72
2024/01/27 10:11:53;;;;;;;6.45;2.17;;;;;;;8.36;100.00;100908.13;5060201;28;20348;-72
2024/01/27 10:14:20;;;;;;;7.32;1.60;;;;;;;8.32;100.00;100911.69;5066146;28;20053;-71
2024/01/27 10:16:47;;;;;;;9.38;1.60;;;;;;;8.46;100.00;100921.78;5051049;28;20403;-72
2024/01/27 10:19:19;;;;;;;4.65;1.35;;;;;;;8.58;100.00;100927.63;5065418;28;20048;-71
2024/01/27 10:21:47;;;;;;;6.13;1.85;;;;;;;8.50;100.00;100925.22;5059395;28;20095;-71
2024/01/27 10:24:15;;;;;;;8.13;1.50;;;;;;;8.59;100.00;100927.56;5056090;28;20050;-72
2024/01/27 10:26:41;;;;;;;8.80;1.60;;;;;;;8.46;100.00;100919.19;5063801;28;20049;-72
2024/01/27 10:29:09;;;;;;;6.53;1.40;;;;;;;8.52;100.00;100915.59;5064167;28;20051;-72
2024/01/27 10:31:36;;;;;;;9.25;1.92;;;;;;;8.71;100.00;100945.53;5069907;28;20505;-72
2024/01/27 10:34:04;;;;;;;7.95;1.67;;;;;;;8.87;100.00;100961.63;5070102;28;20462;-72
2024/01/27 10:36:42;;;;;;;6.50;1.55;;;;;;;8.76;100.00;100954.97;5056604;28;20052;-72
2024/01/27 10:39:20;;;;;;;6.95;1.63;;;;;;;8.70;100.00;100954.25;5059816;28;20052;-72
2024/01/27 10:41:48;;;;;;;9.27;1.60;;;;;;;8.86;100.00;100951.22;5057908;28;20498;-72
2024/01/27 10:44:17;;;;;;;4.90;1.83;;;;;;;8.95;100.00;100944.91;5053319;28;20491;-72
2024/01/27 10:46:46;;;;;;;8.23;1.80;;;;;;;8.80;100.00;100960.09;5059879;28;20046;-72
2024/01/27 10:49:16;;;;;;;5.53;1.40;;;;;;;8.88;100.00;100967.72;5067819;28;20079;-72
2024/01/27 10:51:45;;;;;;;6.68;1.73;;;;;;;9.01;100.00;100971.72;5066605;28;20080;-72
2024/01/27 10:54:22;;;;;;;6.20;1.52;;;;;;;8.79;100.00;100979.25;5071380;28;20474;-71
2024/01/27 10:56:53;;;;;;;5.57;1.40;;;;;;;8.92;100.00;100985.00;5060268;28;20075;-72
2024/01/27 10:59:21;;;;;;;4.72;1.40;;;;;;;9.12;100.00;100993.16;5057146;28;20044;-72
2024/01/27 11:01:53;;;;;;;5.95;1.50;;;;;;;9.06;100.00;100988.09;5069152;28;20044;-71
2024/01/27 11:04:21;;;;;;;5.63;1.33;;;;;;;9.15;100.00;101002.66;5056025;28;20462;-72
2024/01/27 11:06:49;;;;;;;5.25;1.50;;;;;;;9.07;100.00;101012.47;5066592;28;20139;-73
2024/01/27 11:09:18;;;;;;;7.70;1.60;;;;;;;9.09;100.00;101018.50;5059948;28;20057;-72
2024/01/27 11:11:46;;;;;;;5.90;1.60;;;;;;;9.03;100.00;101000.38;5057513;28;20147;-72
2024/01/27 11:14:13;;;;;;;5.85;1.50;;;;;;;9.21;100.00;100991.22;5066984;28;20167;-72
2024/01/27 11:16:45;;;;;;;5.80;1.35;;;;;;;9.43;100.00;100996.66;5062228;28;20457;-71
2024/01/27 11:19:12;;;;;;;5.78;1.30;;;;;;;9.28;100.00;101011.03;5066326;28;20060;-72